createdAt,value
2023-02-15T00:01:45.153Z,83.15
2023-02-15T00:04:15.688Z,83.15
2023-02-15T00:06:42.596Z,83.24
2023-02-15T00:09:10.425Z,83.40
2023-02-15T00:11:40.837Z,83.23
2023-02-15T00:14:14.276Z,83.03
2023-02-15T00:16:43.369Z,83.34
2023-02-15T00:19:11.489Z,83.25
2023-02-15T00:21:39.774Z,83.26
2023-02-15T00:24:09.066Z,83.07
2023-02-15T00:26:36.756Z,83.37
2023-02-15T00:29:04.329Z,83.07
2023-02-15T00:31:32.946Z,82.92
2023-02-15T00:34:04.589Z,82.80
2023-02-15T00:36:31.723Z,83.14
2023-02-15T00:38:58.615Z,83.13
2023-02-15T00:41:25.707Z,82.77
2023-02-15T00:43:52.420Z,82.75
2023-02-15T00:46:19.185Z,83.15
2023-02-15T00:48:45.969Z,83.06
2023-02-15T00:51:12.825Z,82.93
2023-02-15T00:53:39.652Z,82.95
2023-02-15T00:56:06.986Z,83.15
2023-02-15T00:58:33.752Z,83.25
2023-02-15T01:01:06.639Z,82.92
2023-02-15T01:03:34.185Z,82.82
2023-02-15T01:06:01.710Z,82.99
2023-02-15T01:08:28.827Z,83.06
2023-02-15T01:10:56.333Z,82.78
2023-02-15T01:13:23.417Z,82.68
2023-02-15T01:15:55.888Z,82.87
2023-02-15T01:18:23.509Z,82.75
2023-02-15T01:20:50.701Z,82.83
2023-02-15T01:23:17.518Z,82.79
2023-02-15T01:25:44.338Z,82.95
2023-02-15T01:28:11.461Z,82.65
2023-02-15T01:30:38.257Z,82.56
2023-02-15T01:33:05.080Z,82.28
2023-02-15T01:35:31.970Z,82.51
2023-02-15T01:37:58.913Z,82.50
2023-02-15T01:40:25.869Z,82.45
2023-02-15T01:42:54.278Z,82.24
2023-02-15T01:45:30.798Z,82.77
2023-02-15T01:48:24.767Z,82.50
2023-02-15T01:50:55.931Z,82.44
2023-02-15T01:53:31.964Z,82.55
2023-02-15T01:56:03.468Z,82.29
2023-02-15T01:58:33.085Z,82.34
2023-02-15T02:01:01.906Z,82.71
2023-02-15T02:03:49.064Z,82.53
2023-02-15T02:06:16.032Z,82.46
2023-02-15T02:08:43.893Z,82.37
2023-02-15T02:11:12.569Z,82.00
2023-02-15T02:13:41.425Z,82.13
2023-02-15T02:16:21.084Z,82.17
2023-02-15T02:19:32.492Z,81.72
2023-02-15T02:22:28.861Z,82.27
2023-02-15T02:25:13.226Z,82.22
2023-02-15T02:27:50.587Z,81.86
2023-02-15T02:30:42.916Z,82.11
2023-02-15T02:33:15.645Z,81.62
2023-02-15T02:36:05.171Z,81.87
2023-02-15T02:38:44.103Z,81.59
2023-02-15T02:41:41.522Z,81.83
2023-02-15T02:44:17.032Z,81.68
2023-02-15T02:46:59.753Z,81.47
2023-02-15T02:49:32.294Z,81.34
2023-02-15T02:52:01.286Z,81.68
2023-02-15T02:54:29.748Z,81.70
2023-02-15T02:57:00.664Z,82.00
2023-02-15T02:59:56.172Z,81.14
2023-02-15T03:02:30.374Z,81.37
2023-02-15T03:05:04.902Z,81.37
2023-02-15T03:07:33.437Z,81.13
2023-02-15T03:10:03.150Z,81.29
2023-02-15T03:12:35.646Z,81.22
2023-02-15T03:15:04.395Z,81.23
2023-02-15T03:17:34.735Z,81.29
2023-02-15T03:20:07.725Z,81.32
2023-02-15T03:22:43.712Z,81.16
2023-02-15T03:25:25.030Z,81.26
2023-02-15T03:28:00.701Z,81.35
2023-02-15T03:30:30.942Z,81.06
2023-02-15T03:33:01.129Z,81.19
2023-02-15T03:35:38.376Z,80.86
2023-02-15T03:38:08.998Z,80.79
2023-02-15T03:40:57.204Z,80.62
2023-02-15T03:43:41.771Z,80.74
2023-02-15T03:46:22.649Z,80.93
2023-02-15T03:48:54.751Z,80.69
2023-02-15T03:51:36.308Z,81.05
2023-02-15T03:54:35.618Z,80.93
2023-02-15T03:57:17.029Z,80.93
2023-02-15T03:59:57.626Z,81.27
2023-02-15T04:02:35.511Z,81.01
2023-02-15T04:05:02.267Z,81.11
2023-02-15T04:07:28.936Z,80.89
2023-02-15T04:10:09.635Z,80.76
2023-02-15T04:12:36.338Z,81.09
2023-02-15T04:15:29.433Z,81.30
2023-02-15T04:17:56.120Z,81.23
2023-02-15T04:20:35.746Z,81.16
2023-02-15T04:23:16.350Z,81.16
2023-02-15T04:25:43.699Z,81.30
2023-02-15T04:28:10.481Z,81.02
2023-02-15T04:30:37.184Z,80.97
2023-02-15T04:33:04.035Z,81.12
2023-02-15T04:35:32.816Z,81.60
2023-02-15T04:37:59.500Z,80.79
2023-02-15T04:40:26.256Z,81.15
2023-02-15T04:42:53.075Z,80.97
2023-02-15T04:45:19.811Z,81.31
2023-02-15T04:47:46.489Z,81.07
2023-02-15T04:50:13.428Z,81.00
2023-02-15T04:52:40.132Z,81.23
2023-02-15T04:55:07.488Z,81.12
2023-02-15T04:57:34.189Z,81.21
2023-02-15T05:00:00.920Z,81.25
2023-02-15T05:02:27.677Z,81.31
2023-02-15T05:04:54.372Z,81.43
2023-02-15T05:07:21.540Z,81.27
2023-02-15T05:09:49.135Z,81.12
2023-02-15T05:12:15.883Z,81.43
2023-02-15T05:14:42.617Z,81.17
2023-02-15T05:17:09.444Z,81.48
2023-02-15T05:19:36.208Z,81.17
2023-02-15T05:22:02.933Z,81.22
2023-02-15T05:24:44.681Z,81.22
2023-02-15T05:27:28.167Z,81.33
2023-02-15T05:29:55.033Z,81.19
2023-02-15T05:32:21.914Z,81.53
2023-02-15T05:34:48.803Z,81.32
2023-02-15T05:37:15.696Z,81.64
2023-02-15T05:39:42.549Z,81.72
2023-02-15T05:42:09.281Z,81.58
2023-02-15T05:44:36.031Z,81.49
2023-02-15T05:47:04.137Z,81.58
2023-02-15T05:49:31.615Z,81.36
2023-02-15T05:51:58.401Z,81.36
2023-02-15T05:54:25.154Z,81.41
2023-02-15T05:56:51.876Z,81.44
2023-02-15T05:59:18.648Z,81.46
2023-02-15T06:01:45.489Z,81.92
2023-02-15T06:04:12.288Z,81.56
2023-02-15T06:06:39.074Z,81.45
2023-02-15T06:09:05.768Z,81.81
2023-02-15T06:11:32.496Z,81.63
2023-02-15T06:13:59.697Z,81.72
2023-02-15T06:16:26.583Z,81.94
2023-02-15T06:18:53.871Z,81.30
2023-02-15T06:21:20.715Z,81.79
2023-02-15T06:23:47.417Z,81.71
2023-02-15T06:26:14.566Z,81.38
2023-02-15T06:28:42.283Z,81.68
2023-02-15T06:31:09.229Z,81.64
2023-02-15T06:33:36.327Z,81.46
2023-02-15T06:36:04.987Z,81.49
2023-02-15T06:38:32.516Z,81.38
2023-02-15T06:40:59.300Z,81.34
2023-02-15T06:43:26.011Z,81.10
2023-02-15T06:45:52.880Z,81.37
2023-02-15T06:48:19.690Z,81.05
2023-02-15T06:50:47.017Z,80.80
2023-02-15T06:53:13.708Z,80.39
2023-02-15T06:55:40.453Z,80.58
2023-02-15T06:58:07.216Z,80.47
2023-02-15T07:00:34.021Z,80.93
2023-02-15T07:03:01.173Z,80.88
2023-02-15T07:05:32.388Z,80.68
2023-02-15T07:08:00.272Z,80.69
2023-02-15T07:10:28.213Z,80.50
2023-02-15T07:12:55.182Z,80.83
2023-02-15T07:15:22.316Z,80.58
2023-02-15T07:17:50.189Z,80.75
2023-02-15T07:20:21.113Z,81.04
2023-02-15T07:22:48.533Z,80.55
2023-02-15T07:25:15.660Z,80.47
2023-02-15T07:27:43.290Z,80.53
2023-02-15T07:30:13.680Z,80.51
2023-02-15T07:33:25.341Z,79.95
2023-02-15T07:36:01.971Z,79.90
2023-02-15T07:38:35.269Z,80.04
2023-02-15T07:41:03.661Z,80.13
2023-02-15T07:43:30.870Z,80.45
2023-02-15T07:46:02.321Z,80.25
2023-02-15T07:48:29.312Z,79.89
2023-02-15T07:50:59.852Z,80.00
2023-02-15T07:53:26.897Z,79.71
2023-02-15T07:55:53.653Z,79.66
2023-02-15T07:58:20.711Z,79.37
2023-02-15T08:01:01.431Z,79.56
2023-02-15T08:03:30.912Z,79.54
2023-02-15T08:06:00.383Z,79.32
2023-02-15T08:08:31.239Z,79.27
2023-02-15T08:11:14.881Z,79.45
2023-02-15T08:14:04.771Z,78.94
2023-02-15T08:17:03.920Z,78.86
2023-02-15T08:19:33.408Z,79.00
2023-02-15T08:22:08.337Z,78.43
2023-02-15T08:24:40.078Z,77.95
2023-02-15T08:27:09.732Z,77.97
2023-02-15T08:29:38.955Z,77.32
2023-02-15T08:32:11.637Z,77.20
2023-02-15T08:34:43.100Z,77.64
2023-02-15T08:37:10.685Z,77.56
2023-02-15T08:39:37.977Z,77.21
2023-02-15T08:42:04.858Z,76.85
2023-02-15T08:44:31.597Z,76.85
2023-02-15T08:47:03.913Z,76.58
2023-02-15T08:49:30.730Z,76.50
2023-02-15T08:51:57.409Z,76.56
2023-02-15T08:54:24.974Z,76.46
2023-02-15T08:56:51.949Z,76.65
2023-02-15T08:59:21.651Z,76.46
2023-02-15T09:01:51.016Z,76.18
2023-02-15T09:04:18.762Z,76.27
2023-02-15T09:06:49.075Z,75.88
2023-02-15T09:09:17.156Z,75.72
2023-02-15T09:11:47.205Z,75.67
2023-02-15T09:14:17.863Z,75.25
2023-02-15T09:16:49.684Z,75.22
2023-02-15T09:19:19.172Z,75.33
2023-02-15T09:21:46.951Z,75.97
2023-02-15T09:24:15.636Z,74.96
2023-02-15T09:26:44.629Z,74.85
2023-02-15T09:29:14.326Z,74.66
2023-02-15T09:31:46.153Z,74.28
2023-02-15T09:34:14.883Z,74.52
2023-02-15T09:36:42.330Z,74.83
2023-02-15T09:39:18.146Z,74.17
2023-02-15T09:41:57.108Z,73.59
2023-02-15T09:44:47.870Z,73.17
2023-02-15T09:47:31.765Z,73.70
2023-02-15T09:50:18.394Z,74.06
2023-02-15T09:52:51.769Z,73.79
2023-02-15T09:55:39.328Z,73.39
2023-02-15T09:58:30.029Z,73.50
2023-02-15T10:01:09.571Z,73.65
2023-02-15T10:04:16.314Z,73.28
2023-02-15T10:07:06.222Z,73.79
2023-02-15T10:09:42.573Z,73.52
2023-02-15T10:12:37.105Z,73.80
2023-02-15T10:15:12.971Z,73.81
2023-02-15T10:18:20.013Z,73.04
2023-02-15T10:21:01.593Z,73.31
2023-02-15T10:23:40.585Z,73.43
2023-02-15T10:26:19.012Z,73.53
2023-02-15T10:28:52.521Z,73.60
2023-02-15T10:31:28.840Z,73.34
2023-02-15T10:34:23.648Z,73.10
2023-02-15T10:37:18.350Z,72.99
2023-02-15T10:40:09.087Z,73.22
2023-02-15T10:42:51.221Z,72.69
2023-02-15T10:45:17.993Z,72.72
2023-02-15T10:48:00.918Z,72.93
2023-02-15T10:50:55.476Z,72.66
2023-02-15T10:53:42.702Z,72.12
2023-02-15T10:56:17.806Z,72.15
2023-02-15T10:58:55.300Z,72.27
2023-02-15T11:01:35.525Z,72.07
2023-02-15T11:04:30.696Z,72.08
2023-02-15T11:07:06.673Z,71.79
2023-02-15T11:09:47.913Z,71.49
2023-02-15T11:12:20.247Z,71.15
2023-02-15T11:15:02.050Z,71.62
2023-02-15T11:17:59.672Z,71.92
2023-02-15T11:20:38.089Z,71.89
2023-02-15T11:23:19.344Z,71.13
2023-02-15T11:25:53.953Z,71.09
2023-02-15T11:28:25.906Z,70.71
2023-02-15T11:30:57.096Z,70.68
2023-02-15T11:33:39.664Z,70.72
2023-02-15T11:36:18.236Z,70.39
2023-02-15T11:38:50.198Z,69.50
2023-02-15T11:41:25.139Z,69.69
2023-02-15T11:44:20.146Z,70.19
2023-02-15T11:46:47.219Z,69.78
2023-02-15T11:49:23.933Z,69.41
2023-02-15T11:51:52.281Z,69.37
2023-02-15T11:54:29.224Z,69.50
2023-02-15T11:57:00.745Z,69.28
2023-02-15T11:59:36.076Z,68.61
2023-02-15T12:02:03.094Z,68.66
2023-02-15T12:04:29.911Z,68.57
2023-02-15T12:07:22.847Z,68.41
2023-02-15T12:09:59.260Z,68.57
2023-02-15T12:12:32.295Z,68.30
2023-02-15T12:15:05.006Z,68.15
2023-02-15T12:17:40.550Z,67.66
2023-02-15T12:20:16.290Z,67.56
2023-02-15T12:23:16.515Z,67.82
2023-02-15T12:25:44.793Z,67.24
2023-02-15T12:28:33.481Z,67.14
2023-02-15T12:31:02.965Z,67.01
2023-02-15T12:33:37.934Z,66.74
2023-02-15T12:36:20.368Z,66.95
2023-02-15T12:39:06.494Z,66.84
2023-02-15T12:41:33.467Z,66.64
2023-02-15T12:44:20.226Z,66.84
2023-02-15T12:47:01.169Z,66.61
2023-02-15T12:49:30.790Z,66.60
2023-02-15T12:52:04.004Z,66.08
2023-02-15T12:54:35.484Z,65.98
2023-02-15T12:57:27.677Z,66.06
2023-02-15T12:59:58.198Z,65.60
2023-02-15T13:02:35.942Z,65.60
2023-02-15T13:05:27.484Z,65.26
2023-02-15T13:08:05.217Z,64.92
2023-02-15T13:10:42.725Z,65.79
2023-02-15T13:13:23.025Z,65.30
2023-02-15T13:15:53.930Z,64.73
2023-02-15T13:18:35.502Z,65.40
2023-02-15T13:21:13.556Z,65.33
2023-02-15T13:23:46.130Z,65.00
2023-02-15T13:26:19.955Z,64.97
2023-02-15T13:28:52.751Z,65.04
2023-02-15T13:31:22.449Z,65.01
2023-02-15T13:33:52.665Z,65.41
2023-02-15T13:36:45.732Z,65.40
2023-02-15T13:39:28.407Z,65.79
2023-02-15T13:42:10.411Z,65.17
2023-02-15T13:45:15.998Z,65.77
2023-02-15T13:47:48.743Z,65.04
2023-02-15T13:50:34.235Z,64.97
2023-02-15T13:53:16.071Z,66.03
2023-02-15T13:55:52.918Z,65.62
2023-02-15T13:58:33.746Z,65.72
2023-02-15T14:01:17.746Z,65.50
2023-02-15T14:04:02.197Z,65.47
2023-02-15T14:06:55.467Z,65.85
2023-02-15T14:09:28.062Z,65.90
2023-02-15T14:12:23.414Z,65.77
2023-02-15T14:15:03.145Z,65.43
2023-02-15T14:17:43.662Z,65.57
2023-02-15T14:20:30.218Z,65.63
2023-02-15T14:23:21.007Z,65.37
2023-02-15T14:26:05.150Z,65.38
2023-02-15T14:28:47.882Z,65.27
2023-02-15T14:31:17.100Z,65.20
2023-02-15T14:34:02.186Z,65.28
2023-02-15T14:36:31.348Z,65.10
2023-02-15T14:39:34.964Z,65.17
2023-02-15T14:42:12.079Z,65.56
2023-02-15T14:44:46.526Z,65.37
2023-02-15T14:47:32.145Z,65.12
2023-02-15T14:49:59.201Z,65.00
2023-02-15T14:52:26.139Z,65.16
2023-02-15T14:54:58.103Z,65.04
2023-02-15T14:57:35.825Z,65.31
2023-02-15T15:00:23.987Z,65.14
2023-02-15T15:02:53.703Z,65.33
2023-02-15T15:05:25.195Z,65.33
2023-02-15T15:07:56.034Z,65.24
2023-02-15T15:10:22.660Z,65.34
2023-02-15T15:12:54.382Z,65.26
2023-02-15T15:15:33.293Z,65.57
2023-02-15T15:18:06.580Z,65.42
2023-02-15T15:20:51.842Z,65.33
2023-02-15T15:23:22.752Z,65.45
2023-02-15T15:25:57.905Z,65.54
2023-02-15T15:28:34.003Z,65.57
2023-02-15T15:31:19.145Z,65.68
2023-02-15T15:34:02.650Z,65.83
2023-02-15T15:37:02.718Z,66.23
2023-02-15T15:39:57.505Z,66.75
2023-02-15T15:42:38.836Z,67.11
2023-02-15T15:45:33.714Z,67.56
2023-02-15T15:48:14.356Z,67.87
2023-02-15T15:50:43.072Z,68.06
2023-02-15T15:53:23.775Z,67.92
2023-02-15T15:55:56.891Z,68.36
2023-02-15T15:58:25.664Z,68.65
2023-02-15T16:01:00.817Z,68.90
2023-02-15T16:03:29.425Z,69.12
2023-02-15T16:06:01.111Z,69.39
2023-02-15T16:08:33.055Z,69.36
2023-02-15T16:11:01.139Z,69.35
2023-02-15T16:13:28.011Z,69.61
2023-02-15T16:15:57.554Z,69.68
2023-02-15T16:18:27.592Z,69.89
2023-02-15T16:21:01.664Z,70.07
2023-02-15T16:23:48.022Z,70.32
2023-02-15T16:26:37.804Z,70.73
2023-02-15T16:29:14.713Z,70.82
2023-02-15T16:31:41.703Z,70.55
2023-02-15T16:34:17.664Z,70.81
2023-02-15T16:36:44.684Z,70.50
2023-02-15T16:39:19.314Z,70.51
2023-02-15T16:41:47.252Z,71.25
2023-02-15T16:44:20.637Z,71.12
2023-02-15T16:46:55.079Z,71.13
2023-02-15T16:49:27.981Z,71.40
2023-02-15T16:51:58.603Z,72.21
2023-02-15T16:54:27.173Z,71.96
2023-02-15T16:56:54.089Z,71.90
2023-02-15T16:59:33.220Z,71.80
2023-02-15T17:02:00.310Z,72.17
2023-02-15T17:04:32.566Z,72.55
2023-02-15T17:07:04.016Z,71.74
2023-02-15T17:09:31.280Z,72.52
2023-02-15T17:11:59.223Z,72.40
2023-02-15T17:14:31.342Z,72.73
2023-02-15T17:17:08.074Z,72.91
2023-02-15T17:19:43.473Z,73.70
2023-02-15T17:22:23.769Z,73.56
2023-02-15T17:24:59.107Z,73.97
2023-02-15T17:27:29.092Z,74.22
2023-02-15T17:30:05.361Z,73.96
2023-02-15T17:32:35.544Z,74.09
2023-02-15T17:35:18.994Z,74.40
2023-02-15T17:38:00.735Z,74.43
2023-02-15T17:40:30.962Z,74.84
2023-02-15T17:42:57.876Z,74.61
2023-02-15T17:45:32.460Z,74.49
2023-02-15T17:48:00.486Z,74.98
2023-02-15T17:50:29.010Z,74.80
2023-02-15T17:52:57.476Z,75.04
2023-02-15T17:55:40.634Z,75.08
2023-02-15T17:58:16.217Z,75.38
2023-02-15T18:01:03.988Z,75.39
2023-02-15T18:03:57.271Z,75.43
2023-02-15T18:06:38.189Z,75.66
2023-02-15T18:09:18.929Z,76.17
2023-02-15T18:11:49.040Z,76.04
2023-02-15T18:14:15.834Z,76.08
2023-02-15T18:16:45.932Z,76.06
2023-02-15T18:19:24.573Z,76.22
2023-02-15T18:21:57.876Z,76.17
2023-02-15T18:24:27.941Z,76.47
2023-02-15T18:26:55.418Z,76.33
2023-02-15T18:29:22.233Z,76.74
2023-02-15T18:31:54.224Z,76.52
2023-02-15T18:34:33.835Z,76.80
2023-02-15T18:37:03.674Z,76.89
2023-02-15T18:39:40.979Z,77.14
2023-02-15T18:42:19.683Z,77.31
2023-02-15T18:44:46.412Z,77.14
2023-02-15T18:47:13.243Z,77.97
2023-02-15T18:49:40.071Z,77.39
2023-02-15T18:52:10.331Z,77.44
2023-02-15T18:54:37.242Z,77.41
2023-02-15T18:57:04.064Z,78.05
2023-02-15T18:59:31.611Z,78.06
2023-02-15T19:01:59.003Z,78.16
2023-02-15T19:04:26.079Z,78.51
2023-02-15T19:06:54.446Z,78.30
2023-02-15T19:09:24.267Z,78.53
2023-02-15T19:11:52.635Z,78.81
2023-02-15T19:14:28.792Z,78.35
2023-02-15T19:16:57.041Z,79.06
2023-02-15T19:19:24.137Z,78.88
2023-02-15T19:21:51.978Z,79.23
2023-02-15T19:24:40.108Z,78.91
2023-02-15T19:27:23.542Z,79.41
2023-02-15T19:29:51.201Z,79.35
2023-02-15T19:32:18.068Z,79.34
2023-02-15T19:34:44.928Z,79.33
2023-02-15T19:37:42.624Z,79.99
2023-02-15T19:40:23.230Z,79.69
2023-02-15T19:42:50.188Z,79.72
2023-02-15T19:45:22.376Z,79.93
2023-02-15T19:47:50.189Z,79.99
2023-02-15T19:50:24.018Z,80.33
2023-02-15T19:52:51.542Z,80.11
2023-02-15T19:55:27.221Z,79.78
2023-02-15T19:57:55.846Z,80.09
2023-02-15T20:00:26.256Z,80.12
2023-02-15T20:02:54.165Z,80.00
2023-02-15T20:05:21.453Z,80.12
2023-02-15T20:07:50.487Z,80.20
2023-02-15T20:10:20.796Z,80.25
2023-02-15T20:12:48.032Z,80.24
2023-02-15T20:15:24.190Z,80.30
2023-02-15T20:17:51.620Z,80.26
2023-02-15T20:20:19.225Z,80.10
2023-02-15T20:22:48.644Z,80.50
2023-02-15T20:25:26.968Z,80.49
2023-02-15T20:27:54.799Z,80.68
2023-02-15T20:30:24.382Z,80.61
2023-02-15T20:32:51.146Z,80.66
2023-02-15T20:35:21.007Z,80.53
2023-02-15T20:37:48.876Z,80.54
2023-02-15T20:40:21.660Z,80.61
2023-02-15T20:42:49.041Z,80.61
2023-02-15T20:45:24.914Z,80.64
2023-02-15T20:47:52.586Z,80.54
2023-02-15T20:50:26.508Z,80.81
2023-02-15T20:52:55.779Z,80.69
2023-02-15T20:55:26.052Z,80.82
2023-02-15T20:57:53.178Z,80.87
2023-02-15T21:00:25.953Z,80.89
2023-02-15T21:02:56.633Z,81.19
2023-02-15T21:05:26.965Z,81.00
2023-02-15T21:07:54.651Z,81.14
2023-02-15T21:10:24.764Z,81.11
2023-02-15T21:12:52.433Z,81.38
2023-02-15T21:15:33.392Z,81.46
2023-02-15T21:18:06.791Z,81.45
2023-02-15T21:20:36.230Z,81.38
2023-02-15T21:23:06.005Z,81.65
2023-02-15T21:25:36.394Z,81.85
2023-02-15T21:28:04.768Z,81.74
2023-02-15T21:30:31.930Z,81.72
2023-02-15T21:32:58.901Z,81.58
2023-02-15T21:35:26.395Z,81.74
2023-02-15T21:37:53.861Z,81.85
2023-02-15T21:40:26.910Z,82.05
2023-02-15T21:43:08.713Z,82.15
2023-02-15T21:45:49.298Z,82.30
2023-02-15T21:48:16.584Z,82.58
2023-02-15T21:50:57.153Z,82.57
2023-02-15T21:53:43.023Z,82.72
2023-02-15T21:56:14.289Z,82.52
2023-02-15T21:58:41.200Z,82.13
2023-02-15T22:01:22.724Z,82.48
2023-02-15T22:03:50.754Z,82.27
2023-02-15T22:06:17.623Z,82.60
2023-02-15T22:08:45.016Z,82.45
2023-02-15T22:11:15.870Z,82.54
2023-02-15T22:13:43.972Z,82.81
2023-02-15T22:16:20.322Z,82.99
2023-02-15T22:18:48.258Z,82.85
2023-02-15T22:21:17.005Z,82.75
2023-02-15T22:23:43.983Z,82.96
2023-02-15T22:26:37.098Z,83.10
2023-02-15T22:29:04.018Z,83.23
2023-02-15T22:31:31.013Z,82.85
2023-02-15T22:33:58.128Z,83.13
2023-02-15T22:36:28.672Z,82.74
2023-02-15T22:38:56.281Z,82.98
2023-02-15T22:41:30.464Z,82.86
2023-02-15T22:43:57.966Z,82.50
2023-02-15T22:46:25.800Z,82.70
2023-02-15T22:48:52.870Z,82.61
2023-02-15T22:51:22.659Z,82.68
2023-02-15T22:53:52.068Z,82.67
2023-02-15T22:56:23.255Z,83.24
2023-02-15T22:58:50.688Z,82.88
2023-02-15T23:01:27.841Z,82.78
2023-02-15T23:03:54.585Z,82.84
2023-02-15T23:06:21.547Z,82.97
2023-02-15T23:08:48.430Z,82.90
2023-02-15T23:11:15.138Z,82.96
2023-02-15T23:13:42.243Z,82.76
2023-02-15T23:16:15.575Z,82.99
2023-02-15T23:18:45.789Z,83.35
2023-02-15T23:21:20.780Z,83.55
2023-02-15T23:23:52.848Z,83.15
2023-02-15T23:26:21.701Z,83.28
2023-02-15T23:28:49.779Z,83.61
2023-02-15T23:31:44.541Z,83.72
2023-02-15T23:34:22.377Z,83.50
2023-02-15T23:36:49.913Z,83.77
2023-02-15T23:39:33.323Z,83.91
2023-02-15T23:42:02.369Z,83.71
2023-02-15T23:44:30.496Z,83.85
2023-02-15T23:46:58.423Z,83.49
2023-02-15T23:49:25.499Z,84.01
2023-02-15T23:51:55.682Z,83.69
2023-02-15T23:54:24.844Z,83.99
2023-02-15T23:57:00.647Z,84.18
2023-02-15T23:59:30.422Z,83.87
